Time;durP1;ratioP1;P1;durP2;ratioP2;P2;SDS_P1;SDS_P2;PMS_P1;PMS_P2;Temp;Humidity;BMP_temperature;BMP_pressure;BME280_temperature;BME280_humidity;BME280_pressure;Samples;Min_cycle;Max_cycle;Signal;HPM_P1;HPM_P2
2023/08/04 00:01:27;;;;;;;0.10;0.10;;;;;;;17.84;69.73;101110.75;5053802;28;20056;-80
2023/08/04 00:03:53;;;;;;;0.20;0.20;;;;;;;17.81;70.07;101113.56;5055268;28;20029;-80
2023/08/04 00:06:19;;;;;;;0.10;0.10;;;;;;;17.82;69.89;101107.25;5056116;28;20036;-80
2023/08/04 00:08:45;;;;;;;0.00;0.00;;;;;;;17.79;69.85;101111.84;5056379;28;20119;-80
2023/08/04 00:11:11;;;;;;;0.10;0.10;;;;;;;17.79;70.01;101106.50;5056849;28;20382;-80
2023/08/04 00:13:37;;;;;;;0.40;0.40;;;;;;;17.79;69.83;101108.28;5056547;28;20040;-80
2023/08/04 00:16:08;;;;;;;0.10;0.10;;;;;;;17.81;69.91;101109.09;5054427;28;20750;-80
2023/08/04 00:18:35;;;;;;;0.30;0.30;;;;;;;17.78;69.72;101115.47;5054760;28;20502;-81
2023/08/04 00:21:03;;;;;;;0.10;0.10;;;;;;;17.75;69.88;101107.53;5056707;28;20035;-80
2023/08/04 00:23:29;;;;;;;0.10;0.10;;;;;;;17.75;69.68;101117.41;5053138;28;20557;-80
2023/08/04 00:25:55;;;;;;;0.10;0.10;;;;;;;17.72;69.80;101109.50;5055411;28;20032;-80
2023/08/04 00:28:22;;;;;;;0.10;0.10;;;;;;;17.68;70.04;101105.22;5056401;28;20033;-79
2023/08/04 00:30:49;;;;;;;0.30;0.30;;;;;;;17.66;70.29;101104.41;5053887;28;20482;-80
2023/08/04 00:33:15;;;;;;;0.10;0.10;;;;;;;17.65;70.25;101114.28;5051909;28;20032;-80
2023/08/04 00:35:41;;;;;;;0.20;0.20;;;;;;;17.64;70.26;101104.50;5054314;28;20064;-80
2023/08/04 00:38:07;;;;;;;0.10;0.10;;;;;;;17.61;70.04;101116.22;5052260;28;20048;-81
2023/08/04 00:40:33;;;;;;;0.10;0.10;;;;;;;17.57;70.54;101120.00;5053321;28;20033;-80
2023/08/04 00:43:00;;;;;;;0.10;0.10;;;;;;;17.57;70.37;101116.41;5054650;28;20024;-79
2023/08/04 00:45:30;;;;;;;0.10;0.10;;;;;;;17.58;70.43;101126.19;5053220;28;20048;-80
2023/08/04 00:47:57;;;;;;;0.10;0.10;;;;;;;17.56;70.44;101128.09;5050155;28;20044;-79
2023/08/04 00:50:23;;;;;;;0.10;0.10;;;;;;;17.59;70.62;101122.59;5053760;28;20048;-79
2023/08/04 00:52:50;;;;;;;0.10;0.10;;;;;;;17.62;70.61;101127.81;5054208;28;20049;-78
2023/08/04 00:55:17;;;;;;;0.10;0.10;;;;;;;17.62;70.87;101122.47;5056816;28;20040;-79
2023/08/04 00:57:43;;;;;;;0.10;0.10;;;;;;;17.66;71.05;101140.13;5055269;28;20107;-78
2023/08/04 01:00:10;;;;;;;0.20;0.20;;;;;;;17.69;71.06;101139.97;5056304;28;20405;-79
2023/08/04 01:02:36;;;;;;;0.80;0.80;;;;;;;17.73;70.86;101141.59;5052808;28;20040;-79
2023/08/04 01:05:03;;;;;;;0.20;0.20;;;;;;;17.77;70.76;101143.19;5053833;28;20409;-79
2023/08/04 01:07:42;;;;;;;0.10;0.10;;;;;;;17.77;71.06;101137.84;5051110;28;20056;-79
2023/08/04 01:10:32;;;;;;;0.10;0.10;;;;;;;17.84;70.91;101133.06;5055301;28;20033;-79
2023/08/04 01:13:03;;;;;;;0.10;0.10;;;;;;;17.88;70.64;101131.09;5054109;28;20445;-80
2023/08/04 01:15:30;;;;;;;0.10;0.10;;;;;;;17.86;70.84;101136.53;5051129;28;20132;-80
2023/08/04 01:17:58;;;;;;;0.20;0.20;;;;;;;17.87;70.84;101129.38;5054161;28;20089;-80
2023/08/04 01:20:25;;;;;;;0.10;0.10;;;;;;;17.85;70.93;101126.75;5052641;28;20029;-79
2023/08/04 01:22:52;;;;;;;0.10;0.10;;;;;;;17.84;70.83;101126.84;5047523;28;20029;-79
2023/08/04 01:25:22;;;;;;;0.20;0.20;;;;;;;17.82;71.11;101134.06;5052263;28;20029;-80
2023/08/04 01:27:55;;;;;;;0.10;0.10;;;;;;;17.82;71.09;101134.06;5055458;28;20405;-80
2023/08/04 01:30:23;;;;;;;1.20;0.82;;;;;;;17.83;71.05;101135.81;5052551;28;20048;-80
2023/08/04 01:32:49;;;;;;;0.95;0.95;;;;;;;17.73;71.12;101133.56;5054287;28;20506;-79
2023/08/04 01:35:16;;;;;;;0.10;0.10;;;;;;;17.81;70.94;101132.31;5052190;28;20037;-80
2023/08/04 01:37:43;;;;;;;0.10;0.10;;;;;;;17.77;71.10;101129.78;5050239;28;20108;-78
2023/08/04 01:40:11;;;;;;;0.10;0.10;;;;;;;17.77;71.33;101136.97;5052941;28;20518;-80
2023/08/04 01:42:37;;;;;;;0.10;0.10;;;;;;;17.79;71.33;101140.44;5055479;28;20033;-79
2023/08/04 01:45:03;;;;;;;0.20;0.20;;;;;;;17.77;71.23;101134.31;5055585;28;20103;-80
2023/08/04 01:47:29;;;;;;;0.20;0.20;;;;;;;17.79;71.14;101141.31;5052665;28;20111;-79
2023/08/04 01:49:55;;;;;;;0.28;0.28;;;;;;;17.83;71.11;101135.81;5053459;28;20052;-78
2023/08/04 01:52:22;;;;;;;0.10;0.10;;;;;;;17.84;71.25;101132.19;5053648;28;20013;-79
2023/08/04 01:54:48;;;;;;;0.10;0.10;;;;;;;17.86;71.15;101146.41;5052919;28;20604;-79
2023/08/04 01:57:14;;;;;;;0.10;0.10;;;;;;;17.90;70.97;101134.59;5053903;28;20055;-79
2023/08/04 01:59:41;;;;;;;0.10;0.10;;;;;;;17.92;70.82;101138.94;5053751;28;20036;-79
2023/08/04 02:02:07;;;;;;;0.10;0.10;;;;;;;17.96;70.85;101137.03;5052815;28;20056;-79
2023/08/04 02:04:33;;;;;;;0.00;0.00;;;;;;;17.95;70.99;101143.31;5057399;28;20029;-79
2023/08/04 02:06:59;;;;;;;0.10;0.10;;;;;;;17.95;71.03;101144.19;5056511;28;20036;-80
2023/08/04 02:09:28;;;;;;;0.35;0.35;;;;;;;18.00;70.90;101143.97;5052742;28;20032;-80
2023/08/04 02:11:55;;;;;;;0.20;0.20;;;;;;;18.02;70.99;101152.81;5052341;28;20036;-80
2023/08/04 02:14:23;;;;;;;0.40;0.40;;;;;;;18.03;71.05;101149.22;5054031;28;20029;-79
2023/08/04 02:16:49;;;;;;;0.10;0.10;;;;;;;18.04;71.08;101153.59;5051431;28;20029;-79
2023/08/04 02:19:15;;;;;;;0.20;0.20;;;;;;;18.01;71.31;101161.81;5053725;28;20139;-79
2023/08/04 02:21:41;;;;;;;0.93;0.93;;;;;;;18.04;71.27;101160.78;5053580;28;20104;-79
2023/08/04 02:24:07;;;;;;;0.10;0.10;;;;;;;18.06;71.09;101167.81;5053695;28;20505;-79
2023/08/04 02:26:33;;;;;;;0.13;0.13;;;;;;;18.07;71.26;101171.41;5053413;28;20033;-80
2023/08/04 02:28:59;;;;;;;0.40;0.40;;;;;;;18.09;71.07;101178.44;5052136;28;20075;-80
2023/08/04 02:31:28;;;;;;;0.00;0.00;;;;;;;18.10;70.96;101166.72;5050983;28;20036;-79
2023/08/04 02:33:54;;;;;;;0.10;0.10;;;;;;;18.13;70.92;101175.59;5049016;28;20033;-79
2023/08/04 02:36:21;;;;;;;0.28;0.28;;;;;;;18.07;71.12;101177.63;5053695;28;20098;-79
2023/08/04 02:38:47;;;;;;;0.10;0.10;;;;;;;18.08;71.26;101187.41;5053310;28;20035;-81
2023/08/04 02:41:13;;;;;;;0.38;0.38;;;;;;;18.08;71.06;101174.00;5052156;28;20028;-81
2023/08/04 02:43:39;;;;;;;0.35;0.35;;;;;;;18.00;71.13;101186.00;5050381;28;20021;-80
2023/08/04 02:46:06;;;;;;;0.10;0.10;;;;;;;18.09;70.91;101196.31;5047660;28;20103;-80
2023/08/04 02:48:32;;;;;;;0.10;0.10;;;;;;;18.05;70.80;101192.88;5051952;28;20036;-80
2023/08/04 02:53:37;;;;;;;0.10;0.10;;;;;;;18.02;70.74;101192.16;5050002;28;20466;-80
2023/08/04 02:56:12;;;;;;;0.20;0.20;;;;;;;18.03;70.83;101194.78;5048607;28;20121;-81
2023/08/04 02:58:39;;;;;;;0.10;0.10;;;;;;;17.94;70.99;101200.56;5037921;28;20025;-80
2023/08/04 03:01:05;;;;;;;0.10;0.10;;;;;;;17.89;70.88;101199.88;5040130;28;20033;-79
2023/08/04 03:03:32;;;;;;;0.10;0.10;;;;;;;17.87;70.97;101199.06;5039149;28;20144;-82
2023/08/04 03:05:59;;;;;;;0.10;0.10;;;;;;;17.83;71.09;101200.13;5042979;28;20033;-80
2023/08/04 03:08:27;;;;;;;1.15;1.05;;;;;;;17.77;71.26;101199.47;5038640;28;20038;-80
2023/08/04 03:10:53;;;;;;;0.10;0.10;;;;;;;17.77;71.02;101193.25;5037463;28;20033;-79
2023/08/04 03:13:19;;;;;;;0.43;0.38;;;;;;;17.73;70.89;101188.97;5048683;28;20163;-80
2023/08/04 03:15:46;;;;;;;0.10;0.10;;;;;;;17.69;71.00;101198.94;5043527;28;20040;-81
2023/08/04 03:18:12;;;;;;;0.20;0.20;;;;;;;17.66;71.00;101192.84;5050461;28;20033;-80
2023/08/04 03:20:40;;;;;;;0.10;0.10;;;;;;;17.63;71.11;101196.53;5041853;28;20037;-80
2023/08/04 03:23:07;;;;;;;0.25;0.25;;;;;;;17.57;71.48;101199.47;5041479;28;20075;-81
2023/08/04 03:25:33;;;;;;;0.05;0.05;;;;;;;17.54;71.41;101204.97;5051643;28;20057;-80
2023/08/04 03:28:00;;;;;;;0.10;0.10;;;;;;;17.53;71.18;101204.09;5048497;28;20041;-80
2023/08/04 03:30:27;;;;;;;0.10;0.10;;;;;;;17.51;71.09;101202.41;5047858;28;20029;-79
2023/08/04 03:32:53;;;;;;;0.10;0.10;;;;;;;17.49;71.09;101209.66;5039975;28;20036;-79
2023/08/04 03:35:19;;;;;;;0.20;0.20;;;;;;;17.46;71.17;101208.00;5034569;28;20076;-80
2023/08/04 03:37:45;;;;;;;0.10;0.10;;;;;;;17.44;71.12;101215.22;5040436;28;20118;-80
2023/08/04 03:40:11;;;;;;;0.10;0.10;;;;;;;17.44;71.29;101208.03;5040582;28;20121;-80
2023/08/04 03:42:38;;;;;;;6.72;0.57;;;;;;;17.45;71.53;101215.16;5044287;28;20033;-79
2023/08/04 03:45:08;;;;;;;0.10;0.10;;;;;;;17.50;71.34;101219.47;5050776;28;20410;-80
2023/08/04 03:47:34;;;;;;;0.10;0.10;;;;;;;17.49;71.54;101223.06;5041442;28;20048;-79
2023/08/04 03:50:03;;;;;;;0.10;0.10;;;;;;;17.53;71.79;101224.66;5042899;28;20108;-81
2023/08/04 03:52:29;;;;;;;0.10;0.10;;;;;;;17.60;71.55;101228.81;5051432;28;20440;-79
2023/08/04 03:54:55;;;;;;;0.10;0.10;;;;;;;17.63;71.50;101228.69;5045106;28;20044;-78
2023/08/04 03:57:21;;;;;;;0.10;0.10;;;;;;;17.59;71.83;101233.28;5043540;28;20030;-83
2023/08/04 03:59:48;;;;;;;3.85;0.65;;;;;;;17.64;71.64;101233.09;5046080;28;20025;-80
2023/08/04 04:02:14;;;;;;;0.40;0.40;;;;;;;17.69;71.56;101233.78;5051567;28;20559;-81
2023/08/04 04:04:40;;;;;;;0.10;0.10;;;;;;;17.76;71.43;101232.56;5039081;28;20026;-80
2023/08/04 04:07:06;;;;;;;18.20;1.20;;;;;;;17.81;71.45;101231.50;5029743;28;20037;-81
2023/08/04 04:09:32;;;;;;;0.10;0.10;;;;;;;17.82;71.43;101231.44;5031873;28;20093;-81
2023/08/04 04:11:59;;;;;;;0.10;0.10;;;;;;;17.84;71.40;101226.00;5030287;28;20041;-82
2023/08/04 04:14:25;;;;;;;0.10;0.10;;;;;;;17.88;71.30;101235.66;5034884;28;20037;-82
2023/08/04 04:16:51;;;;;;;0.10;0.10;;;;;;;17.94;70.97;101238.09;5044836;28;20526;-80
2023/08/04 04:19:17;;;;;;;0.10;0.10;;;;;;;17.98;71.02;101238.81;5033082;28;20049;-83
2023/08/04 04:21:43;;;;;;;0.10;0.10;;;;;;;18.00;70.93;101245.84;5029483;28;20042;-80
2023/08/04 04:24:09;;;;;;;0.10;0.10;;;;;;;18.04;70.72;101243.91;5028984;28;20491;-84
2023/08/04 04:26:35;;;;;;;0.10;0.10;;;;;;;18.07;70.84;101241.97;5035416;28;20909;-80
2023/08/04 04:29:02;;;;;;;0.10;0.10;;;;;;;18.11;70.60;101248.06;5037880;28;20030;-85
2023/08/04 04:31:28;;;;;;;0.40;0.40;;;;;;;18.16;70.50;101255.91;5035158;28;20049;-83
2023/08/04 04:33:54;;;;;;;0.10;0.10;;;;;;;18.19;70.46;101250.38;5026085;28;20645;-82
2023/08/04 04:36:20;;;;;;;0.20;0.20;;;;;;;18.23;70.35;101251.97;5023176;28;20068;-83
2023/08/04 04:38:46;;;;;;;0.10;0.10;;;;;;;18.22;70.25;101255.63;5023387;28;20041;-83
2023/08/04 04:41:12;;;;;;;0.10;0.10;;;;;;;18.23;70.09;101257.34;5024884;28;20041;-83
2023/08/04 04:43:38;;;;;;;0.10;0.10;;;;;;;18.25;70.02;101263.53;5027067;28;20029;-83
2023/08/04 04:46:05;;;;;;;0.10;0.10;;;;;;;18.30;70.29;101257.94;5034910;28;20052;-83
2023/08/04 04:48:31;;;;;;;0.10;0.10;;;;;;;18.21;69.77;101269.97;5030986;28;20032;-82
2023/08/04 04:50:57;;;;;;;0.10;0.10;;;;;;;18.18;70.32;101270.09;5032298;28;20682;-82
2023/08/04 04:53:23;;;;;;;0.32;0.32;;;;;;;18.17;70.53;101268.34;5034153;28;20044;-82
2023/08/04 04:55:49;;;;;;;0.10;0.10;;;;;;;18.10;70.50;101279.34;5023704;28;20041;-83
2023/08/04 04:58:15;;;;;;;0.10;0.10;;;;;;;18.08;70.47;101278.56;5035021;28;20097;-82
2023/08/04 05:00:42;;;;;;;1.02;0.93;;;;;;;18.04;70.79;101278.75;5035903;28;20030;-82
2023/08/04 05:03:10;;;;;;;0.35;0.35;;;;;;;17.98;70.84;101279.03;5030406;28;20120;-82
2023/08/04 05:05:38;;;;;;;0.10;0.10;;;;;;;17.98;70.90;101290.66;5020793;28;20030;-82
2023/08/04 05:08:04;;;;;;;0.10;0.10;;;;;;;17.98;70.71;101285.28;5024796;28;20490;-83
2023/08/04 05:10:30;;;;;;;0.10;0.10;;;;;;;17.99;70.78;101286.16;5022496;28;20046;-81
2023/08/04 05:12:56;;;;;;;0.10;0.10;;;;;;;18.01;70.97;101293.19;5027880;28;20085;-82
2023/08/04 05:15:22;;;;;;;0.10;0.10;;;;;;;18.03;70.78;101294.00;5017242;28;20060;-83
2023/08/04 05:17:48;;;;;;;0.10;0.10;;;;;;;18.04;71.25;101295.72;5032582;28;20034;-83
2023/08/04 05:20:14;;;;;;;0.10;0.10;;;;;;;18.02;71.77;101297.59;5027412;28;20507;-83
2023/08/04 05:22:41;;;;;;;0.10;0.10;;;;;;;18.07;71.54;101298.28;5027985;28;20123;-83
2023/08/04 05:25:08;;;;;;;0.10;0.10;;;;;;;18.10;71.37;101299.94;5022411;28;20090;-81
2023/08/04 05:27:34;;;;;;;0.10;0.10;;;;;;;18.14;71.47;101311.41;5033752;28;20113;-82
2023/08/04 05:30:01;;;;;;;0.10;0.10;;;;;;;18.20;71.31;101311.13;5032685;28;20067;-82
2023/08/04 05:32:27;;;;;;;0.10;0.10;;;;;;;18.23;71.53;101311.88;5028309;28;20316;-82
2023/08/04 05:34:54;;;;;;;0.10;0.10;;;;;;;18.24;71.88;101313.63;5029776;28;20184;-83
2023/08/04 05:37:20;;;;;;;0.10;0.10;;;;;;;18.29;71.62;101316.06;5033292;28;20529;-82
2023/08/04 05:39:46;;;;;;;0.63;0.45;;;;;;;18.29;71.80;101321.44;5027031;28;20037;-82
2023/08/04 05:42:12;;;;;;;0.10;0.10;;;;;;;18.34;71.42;101319.41;5033549;28;20028;-84
2023/08/04 05:44:38;;;;;;;0.10;0.10;;;;;;;18.35;71.48;101323.00;5028341;28;20040;-82
2023/08/04 05:47:04;;;;;;;0.10;0.10;;;;;;;18.36;71.23;101317.53;5029647;28;20044;-81
2023/08/04 05:49:33;;;;;;;0.10;0.10;;;;;;;18.45;71.07;101323.44;5021220;28;20042;-80
2023/08/04 05:52:00;;;;;;;0.47;0.47;;;;;;;18.44;71.09;101322.56;5021801;28;20076;-82
2023/08/04 05:54:26;;;;;;;2.30;1.38;;;;;;;18.45;71.19;101331.50;5026650;28;20042;-82
2023/08/04 05:56:52;;;;;;;0.10;0.10;;;;;;;18.50;71.06;101327.66;5030946;28;20029;-82
2023/08/04 05:59:18;;;;;;;0.10;0.10;;;;;;;18.55;70.95;101327.44;5027832;28;20035;-85
2023/08/04 06:01:44;;;;;;;0.10;0.10;;;;;;;18.59;70.93;101337.97;5028333;28;20055;-81
2023/08/04 06:04:11;;;;;;;0.10;0.10;;;;;;;18.62;71.02;101336.97;5016076;28;20377;-82
2023/08/04 06:06:37;;;;;;;0.20;0.20;;;;;;;18.64;70.95;101326.16;5022250;28;20026;-82
2023/08/04 06:09:03;;;;;;;0.10;0.10;;;;;;;18.66;70.90;101335.00;5027976;28;20030;-81
2023/08/04 06:11:29;;;;;;;0.13;0.13;;;;;;;18.72;70.92;101335.59;5021646;28;20037;-82
2023/08/04 06:13:56;;;;;;;0.10;0.10;;;;;;;18.71;70.37;101339.22;5029075;28;20037;-82
2023/08/04 06:16:22;;;;;;;0.10;0.10;;;;;;;18.74;69.93;101339.09;5040121;28;20045;-83
2023/08/04 06:18:48;;;;;;;0.10;0.10;;;;;;;18.82;69.84;101344.09;5026410;28;20052;-83
2023/08/04 06:21:14;;;;;;;0.10;0.10;;;;;;;18.87;69.76;101339.38;5022059;28;20105;-83
2023/08/04 06:23:45;;;;;;;0.40;0.40;;;;;;;18.90;69.43;101349.09;5019587;28;20695;-81
2023/08/04 06:26:12;;;;;;;0.10;0.10;;;;;;;18.90;69.30;101349.09;5023227;28;20034;-81
2023/08/04 06:28:40;;;;;;;0.10;0.10;;;;;;;18.83;68.88;101356.56;5021046;28;20033;-82
2023/08/04 06:31:06;;;;;;;0.10;0.10;;;;;;;18.86;69.12;101367.16;5019911;28;20495;-81
2023/08/04 06:33:32;;;;;;;0.40;0.40;;;;;;;18.88;69.53;101367.09;5027437;28;20763;-81
2023/08/04 06:35:58;;;;;;;0.10;0.10;;;;;;;18.83;69.38;101366.41;5029704;28;20318;-81
2023/08/04 06:38:24;;;;;;;0.10;0.10;;;;;;;18.84;69.61;101366.38;5030185;28;20338;-81
2023/08/04 06:40:51;;;;;;;0.10;0.10;;;;;;;18.90;69.74;101365.19;5028543;28;20195;-80
2023/08/04 06:43:17;;;;;;;0.10;0.10;;;;;;;18.94;69.47;101366.84;5032564;28;20032;-78
2023/08/04 06:45:43;;;;;;;0.20;0.20;;;;;;;19.02;69.58;101375.41;5035256;28;20041;-79
2023/08/04 06:48:09;;;;;;;0.10;0.10;;;;;;;19.12;69.56;101374.97;5035771;28;20070;-81
2023/08/04 06:50:35;;;;;;;0.08;0.08;;;;;;;19.19;69.21;101379.09;5033575;28;20049;-80
2023/08/04 06:53:01;;;;;;;0.13;0.13;;;;;;;19.24;69.23;101375.25;5035970;28;20029;-79
2023/08/04 06:55:27;;;;;;;0.10;0.10;;;;;;;19.34;69.06;101375.69;5030436;28;20483;-81
2023/08/04 06:57:53;;;;;;;0.10;0.10;;;;;;;19.44;68.97;101373.44;5033027;28;20116;-81
2023/08/04 07:00:19;;;;;;;0.10;0.10;;;;;;;19.49;68.62;101378.56;5033302;28;20040;-82
2023/08/04 07:02:47;;;;;;;0.10;0.10;;;;;;;19.57;68.26;101384.44;5028988;28;20029;-82
2023/08/04 07:05:14;;;;;;;0.22;0.22;;;;;;;19.63;68.10;101381.44;5022418;28;20029;-81
2023/08/04 07:07:40;;;;;;;0.10;0.10;;;;;;;19.68;67.98;101386.59;5035687;28;20037;-82
2023/08/04 07:10:07;;;;;;;0.10;0.10;;;;;;;19.72;67.54;101397.09;5022759;28;20049;-80
2023/08/04 07:12:33;;;;;;;0.10;0.10;;;;;;;19.76;67.66;101391.59;5021566;28;20040;-81
2023/08/04 07:14:59;;;;;;;0.10;0.10;;;;;;;19.80;67.76;101394.06;5022977;28;20099;-80
2023/08/04 07:17:25;;;;;;;4.03;1.85;;;;;;;19.78;67.42;101392.41;5015936;28;20033;-81
2023/08/04 07:19:52;;;;;;;0.20;0.20;;;;;;;19.76;67.25;101391.59;5016655;28;20076;-81
2023/08/04 07:22:18;;;;;;;0.10;0.10;;;;;;;19.74;67.88;101397.06;5016433;28;20109;-81
2023/08/04 07:24:46;;;;;;;0.10;0.10;;;;;;;19.70;67.97;101398.13;5022313;28;20038;-81
2023/08/04 07:27:13;;;;;;;0.25;0.25;;;;;;;19.66;68.26;101408.16;5016649;28;20054;-80
2023/08/04 07:29:39;;;;;;;0.10;0.10;;;;;;;19.60;68.65;101405.81;5016370;28;20069;-81
2023/08/04 07:32:05;;;;;;;0.10;0.10;;;;;;;19.56;68.75;101406.88;5023973;28;20033;-80
2023/08/04 07:34:32;;;;;;;0.10;0.10;;;;;;;19.49;69.41;101417.06;5015139;28;20466;-81
2023/08/04 07:36:58;;;;;;;0.10;0.10;;;;;;;19.52;69.58;101413.34;5019378;28;20034;-79
2023/08/04 07:39:24;;;;;;;0.08;0.08;;;;;;;19.54;69.76;101416.84;5025423;28;20041;-81
2023/08/04 07:41:50;;;;;;;0.10;0.10;;;;;;;19.59;69.53;101417.50;5020531;28;20590;-81
2023/08/04 07:44:16;;;;;;;0.10;0.10;;;;;;;19.66;69.75;101424.28;5029293;28;20083;-82
2023/08/04 07:46:42;;;;;;;0.30;0.30;;;;;;;19.75;70.00;101419.41;5026698;28;20022;-81
2023/08/04 07:49:08;;;;;;;0.05;0.05;;;;;;;19.82;70.12;101418.16;5019649;28;20036;-80
2023/08/04 07:51:35;;;;;;;0.10;0.10;;;;;;;19.83;69.85;101420.81;5031926;28;20025;-81
2023/08/04 07:54:01;;;;;;;0.10;0.10;;;;;;;19.83;68.88;101425.34;5037063;28;20087;-81
2023/08/04 07:56:32;;;;;;;3.00;1.40;;;;;;;19.92;68.72;101424.84;5021110;28;20034;-82
2023/08/04 07:58:58;;;;;;;0.77;0.77;;;;;;;19.95;68.49;101426.50;5028652;28;20037;-83
2023/08/04 08:01:24;;;;;;;0.10;0.10;;;;;;;20.02;68.47;101430.66;5019780;28;20314;-82
2023/08/04 08:03:50;;;;;;;0.05;0.05;;;;;;;20.03;68.24;101427.88;5018939;28;20114;-82
2023/08/04 08:06:16;;;;;;;4.60;0.50;;;;;;;19.97;67.06;101430.88;5025434;28;20064;-82
2023/08/04 08:08:46;;;;;;;0.10;0.10;;;;;;;19.98;66.62;101429.94;5029787;28;20360;-82
2023/08/04 08:11:12;;;;;;;0.00;0.00;;;;;;;19.99;66.20;101428.97;5021372;28;20017;-83
2023/08/04 08:13:38;;;;;;;0.10;0.10;;;;;;;20.14;66.52;101426.47;5018662;28;20030;-82
2023/08/04 08:16:14;;;;;;;0.03;0.03;;;;;;;20.29;65.67;101427.50;5019554;28;20030;-82
2023/08/04 08:18:41;;;;;;;0.10;0.10;;;;;;;20.44;65.65;101431.22;5019024;28;20026;-83
2023/08/04 08:21:08;;;;;;;0.80;0.45;;;;;;;20.69;65.35;101437.03;5022572;28;20029;-82
2023/08/04 08:23:35;;;;;;;0.10;0.10;;;;;;;20.75;62.98;101440.38;5026668;28;20034;-80
2023/08/04 08:26:03;;;;;;;2.83;1.55;;;;;;;20.81;61.22;101442.75;5025589;28;20022;-82
2023/08/04 08:28:29;;;;;;;0.10;0.10;;;;;;;20.93;62.03;101450.16;5017771;28;20034;-81
2023/08/04 08:30:56;;;;;;;0.10;0.10;;;;;;;20.89;60.80;101448.59;5027463;28;20032;-80
2023/08/04 08:33:22;;;;;;;0.10;0.10;;;;;;;21.05;62.81;101453.13;5035116;28;20030;-82
2023/08/04 08:35:48;;;;;;;0.13;0.13;;;;;;;21.11;62.94;101452.81;5032140;28;20026;-82
2023/08/04 08:38:15;;;;;;;0.10;0.10;;;;;;;21.23;63.18;101443.19;5018709;28;20407;-79
2023/08/04 08:40:41;;;;;;;0.10;0.10;;;;;;;21.24;60.52;101442.25;5019241;28;20093;-81
2023/08/04 08:43:07;;;;;;;0.10;0.10;;;;;;;21.36;60.33;101448.75;5018788;28;20077;-80
2023/08/04 08:45:36;;;;;;;0.35;0.35;;;;;;;21.50;61.04;101451.56;5019615;28;20022;-81
2023/08/04 08:48:04;;;;;;;0.10;0.10;;;;;;;21.53;58.55;101447.81;5024459;28;20029;-82
2023/08/04 08:50:32;;;;;;;4.18;1.30;;;;;;;21.46;58.17;101460.78;5019981;28;20026;-81
2023/08/04 08:53:06;;;;;;;0.10;0.10;;;;;;;21.54;59.65;101465.75;5018141;28;20042;-82
2023/08/04 08:55:34;;;;;;;0.10;0.10;;;;;;;21.38;59.36;101463.88;5019147;28;20025;-81
2023/08/04 08:58:02;;;;;;;0.10;0.10;;;;;;;21.13;58.47;101472.47;5019592;28;20120;-82
2023/08/04 09:00:28;;;;;;;0.10;0.10;;;;;;;20.97;59.97;101467.91;5018926;28;20026;-81
2023/08/04 09:02:55;;;;;;;0.00;0.00;;;;;;;20.85;59.44;101473.97;5018512;28;20434;-81
2023/08/04 09:05:21;;;;;;;0.10;0.10;;;;;;;20.82;59.81;101477.69;5022875;28;20040;-79
2023/08/04 09:07:49;;;;;;;0.10;0.10;;;;;;;20.80;60.33;101476.03;5026192;28;20026;-80
2023/08/04 09:10:15;;;;;;;0.10;0.10;;;;;;;20.82;60.42;101476.81;5022365;28;20026;-81
2023/08/04 09:12:44;;;;;;;0.08;0.08;;;;;;;20.78;60.76;101484.19;5029591;28;20044;-80
2023/08/04 09:15:12;;;;;;;0.43;0.30;;;;;;;20.81;60.72;101485.84;5032782;28;20029;-80
2023/08/04 09:17:39;;;;;;;0.10;0.10;;;;;;;20.82;60.19;101480.38;5033349;28;20049;-79
2023/08/04 09:20:07;;;;;;;0.10;0.10;;;;;;;20.82;59.02;101482.19;5039023;28;20029;-79
2023/08/04 09:22:41;;;;;;;0.10;0.10;;;;;;;20.81;58.12;101483.13;5030813;28;20033;-81
2023/08/04 09:25:08;;;;;;;0.10;0.10;;;;;;;20.93;58.92;101481.63;5031474;28;20037;-78
2023/08/04 09:27:38;;;;;;;1.25;0.52;;;;;;;21.06;57.07;101488.09;5038405;28;20037;-79
2023/08/04 09:30:07;;;;;;;0.40;0.40;;;;;;;21.14;55.40;101482.28;5025752;28;20105;-81
2023/08/04 09:32:41;;;;;;;0.10;0.10;;;;;;;21.31;56.52;101487.63;5026977;28;20376;-82
2023/08/04 09:35:08;;;;;;;0.10;0.10;;;;;;;21.33;56.71;101485.72;5034550;28;20033;-80
2023/08/04 09:37:37;;;;;;;0.00;0.00;;;;;;;21.36;56.56;101483.81;5025627;28;20022;-82
2023/08/04 09:40:11;;;;;;;0.50;0.50;;;;;;;21.45;57.15;101488.69;5023154;28;20473;-82
2023/08/04 09:42:38;;;;;;;0.10;0.10;;;;;;;21.53;56.98;101491.81;5020085;28;20609;-79
2023/08/04 09:45:05;;;;;;;0.10;0.10;;;;;;;21.54;55.77;101480.06;5019508;28;20054;-81
2023/08/04 09:47:31;;;;;;;0.10;0.10;;;;;;;21.67;56.51;101482.13;5019405;28;20105;-82
2023/08/04 09:49:57;;;;;;;0.00;0.00;;;;;;;;;;5021768;28;20044;-82
2023/08/04 09:52:27;;;;;;;0.00;0.00;;;;;;;21.87;57.11;101476.47;5019066;28;20101;-82
2023/08/04 09:54:54;;;;;;;0.10;0.10;;;;;;;22.01;56.72;101485.56;5017408;28;20029;-82
2023/08/04 09:57:22;;;;;;;0.10;0.10;;;;;;;22.11;55.52;101492.19;5018618;28;20029;-82
2023/08/04 09:59:49;;;;;;;0.57;0.57;;;;;;;22.21;54.92;101489.81;5018532;28;20117;-82
2023/08/04 10:02:18;;;;;;;0.20;0.20;;;;;;;22.27;54.29;101486.75;5018446;28;20021;-82
2023/08/04 10:04:49;;;;;;;0.00;0.00;;;;;;;22.43;52.75;101489.41;5017206;28;20593;-80
2023/08/04 10:07:18;;;;;;;0.10;0.10;;;;;;;22.60;54.63;101480.31;5029557;28;20021;-82
2023/08/04 10:09:45;;;;;;;0.10;0.10;;;;;;;22.79;54.98;101485.44;5018682;28;20029;-80
2023/08/04 10:12:12;;;;;;;0.10;0.10;;;;;;;22.81;55.12;101485.38;5018210;28;20030;-81
2023/08/04 10:14:39;;;;;;;0.10;0.10;;;;;;;22.76;53.74;101499.16;5019546;28;20029;-81
2023/08/04 10:17:06;;;;;;;0.10;0.10;;;;;;;22.57;53.11;101497.56;5018413;28;20075;-80
2023/08/04 10:19:34;;;;;;;0.05;0.05;;;;;;;22.49;52.25;101502.56;5017914;28;20041;-80
2023/08/04 10:22:10;;;;;;;0.08;0.08;;;;;;;22.65;53.33;101496.25;5025578;28;20053;-80
2023/08/04 10:24:41;;;;;;;0.10;0.10;;;;;;;22.61;52.99;101496.41;5022671;28;20402;-80
2023/08/04 10:30:11;;;;;;;0.17;0.17;;;;;;;22.85;53.64;101506.69;5111904;27;20411;-81
2023/08/04 10:32:39;;;;;;;0.25;0.25;;;;;;;22.53;52.42;101498.72;5086062;28;20107;-80
2023/08/04 10:35:06;;;;;;;0.03;0.03;;;;;;;22.45;52.41;101507.31;5085603;28;20032;-82
2023/08/04 10:37:46;;;;;;;0.10;0.10;;;;;;;22.31;52.76;101509.91;5072493;28;20129;-80
2023/08/04 10:40:12;;;;;;;0.00;0.00;;;;;;;22.28;53.97;101508.25;5081952;28;20032;-82
2023/08/04 10:46:05;;;;;;;0.00;0.00;;;;;;;22.68;51.34;101515.84;5074625;28;20395;-82
2023/08/04 10:48:36;;;;;;;0.08;0.08;;;;;;;22.62;49.73;101517.06;5054360;28;20029;-82
2023/08/04 10:51:02;;;;;;;0.40;0.40;;;;;;;22.73;50.67;101518.25;5045787;28;20025;-82
2023/08/04 10:53:29;;;;;;;0.00;0.00;;;;;;;22.87;50.99;101504.78;5060906;28;20578;-79
2023/08/04 10:55:58;;;;;;;0.10;0.10;;;;;;;23.07;50.36;101503.53;5047442;28;20495;-82
2023/08/04 10:58:25;;;;;;;0.10;0.10;;;;;;;23.00;49.82;101506.72;5037301;28;20144;-82
2023/08/04 11:00:53;;;;;;;0.17;0.17;;;;;;;23.07;50.44;101513.47;5035650;28;20033;-82
2023/08/04 11:03:28;;;;;;;0.10;0.10;;;;;;;23.09;50.44;101517.81;5039573;28;20037;-82
2023/08/04 11:05:55;;;;;;;0.10;0.10;;;;;;;23.23;50.32;101516.13;5034151;28;20037;-82
2023/08/04 11:08:23;;;;;;;0.10;0.10;;;;;;;23.37;50.01;101515.25;5034054;28;20053;-80
2023/08/04 11:10:51;;;;;;;0.10;0.10;;;;;;;23.65;49.75;101518.88;5034331;28;20105;-82
2023/08/04 11:13:19;;;;;;;0.05;0.05;;;;;;;23.71;49.15;101515.78;5033518;28;20026;-81
2023/08/04 11:15:46;;;;;;;0.00;0.00;;;;;;;23.70;48.80;101520.34;5045716;28;20513;-81
2023/08/04 11:18:19;;;;;;;0.10;0.10;;;;;;;23.86;49.22;101525.63;5040248;28;20034;-82
2023/08/04 11:20:45;;;;;;;0.05;0.05;;;;;;;23.99;48.38;101527.50;5052830;28;20021;-82
2023/08/04 11:23:12;;;;;;;0.20;0.20;;;;;;;24.10;48.76;101527.69;5052345;28;20036;-82
2023/08/04 11:25:40;;;;;;;0.00;0.00;;;;;;;24.01;48.46;101531.88;5054009;28;20041;-83
2023/08/04 11:28:07;;;;;;;0.00;0.00;;;;;;;23.80;48.91;101539.53;5052970;28;20044;-83
2023/08/04 11:30:36;;;;;;;0.10;0.10;;;;;;;23.79;49.37;101537.81;5045183;28;20112;-80
2023/08/04 11:33:03;;;;;;;0.00;0.00;;;;;;;23.75;49.54;101552.47;5047383;28;20510;-82
2023/08/04 11:35:32;;;;;;;0.10;0.10;;;;;;;23.81;48.67;101552.09;5053961;28;20025;-83